createdAt,value
2022-11-06T00:01:36.716Z,84.00
2022-11-06T00:04:03.756Z,83.76
2022-11-06T00:06:49.285Z,83.84
2022-11-06T00:09:20.538Z,83.88
2022-11-06T00:11:49.266Z,83.66
2022-11-06T00:14:16.757Z,83.72
2022-11-06T00:16:44.988Z,83.95
2022-11-06T00:19:12.211Z,83.72
2022-11-06T00:21:39.625Z,83.70
2022-11-06T00:24:08.193Z,83.78
2022-11-06T00:26:36.115Z,83.92
2022-11-06T00:29:04.559Z,83.76
2022-11-06T00:31:36.161Z,83.57
2022-11-06T00:34:04.636Z,83.75
2022-11-06T00:36:31.780Z,83.86
2022-11-06T00:39:00.082Z,83.73
2022-11-06T00:41:27.763Z,83.69
2022-11-06T00:43:57.245Z,83.58
2022-11-06T00:46:24.676Z,83.57
2022-11-06T00:48:53.061Z,83.76
2022-11-06T00:51:28.815Z,83.67
2022-11-06T00:53:57.719Z,83.64
2022-11-06T00:56:25.261Z,83.78
2022-11-06T00:58:52.668Z,83.23
2022-11-06T01:01:24.337Z,83.66
2022-11-06T01:03:55.673Z,83.80
2022-11-06T01:06:31.602Z,83.73
2022-11-06T01:08:59.191Z,83.64
2022-11-06T01:11:52.364Z,83.68
2022-11-06T01:14:21.549Z,83.49
2022-11-06T01:16:48.760Z,83.82
2022-11-06T01:19:17.263Z,83.60
2022-11-06T01:21:45.784Z,83.68
2022-11-06T01:24:26.901Z,83.60
2022-11-06T01:29:41.759Z,83.71
2022-11-06T01:32:08.705Z,83.95
2022-11-06T01:34:35.967Z,83.60
2022-11-06T01:37:02.866Z,83.75
2022-11-06T01:39:31.317Z,83.75
2022-11-06T01:41:58.387Z,83.69
2022-11-06T01:44:43.988Z,83.72
2022-11-06T01:47:28.298Z,83.35
2022-11-06T01:49:57.700Z,83.70
2022-11-06T01:52:26.068Z,83.79
2022-11-06T01:54:56.509Z,83.68
2022-11-06T01:57:23.641Z,83.88
2022-11-06T01:59:52.477Z,83.73
2022-11-06T02:02:19.743Z,83.62
2022-11-06T02:04:51.048Z,83.73
2022-11-06T02:07:18.632Z,83.81
2022-11-06T02:09:45.849Z,83.69
2022-11-06T02:12:50.520Z,83.49
2022-11-06T02:15:23.263Z,83.60
2022-11-06T02:18:12.324Z,83.96
2022-11-06T02:20:46.988Z,83.94
2022-11-06T02:23:32.601Z,83.46
2022-11-06T02:26:13.725Z,83.89
2022-11-06T02:28:56.280Z,83.83
2022-11-06T02:31:32.968Z,83.65
2022-11-06T02:34:05.067Z,84.00
2022-11-06T02:36:38.616Z,83.73
2022-11-06T02:39:10.706Z,84.09
2022-11-06T02:41:41.256Z,84.11
2022-11-06T02:44:11.587Z,83.82
2022-11-06T02:46:42.015Z,83.96
2022-11-06T02:49:15.694Z,83.71
2022-11-06T02:51:47.753Z,84.21
2022-11-06T02:54:16.203Z,83.76
2022-11-06T02:56:45.283Z,83.57
2022-11-06T02:59:16.757Z,83.67
2022-11-06T03:01:57.269Z,84.03
2022-11-06T03:04:46.275Z,84.09
2022-11-06T03:07:37.008Z,84.00
2022-11-06T03:10:05.460Z,83.91
2022-11-06T03:12:37.621Z,84.09
2022-11-06T03:15:26.248Z,84.00
2022-11-06T03:18:14.077Z,84.13
2022-11-06T03:20:46.214Z,84.14
2022-11-06T03:23:20.893Z,84.17
2022-11-06T03:26:04.154Z,84.19
2022-11-06T03:28:34.904Z,84.21
2022-11-06T03:31:13.125Z,84.33
2022-11-06T03:33:53.266Z,83.89
2022-11-06T03:36:23.956Z,84.10
2022-11-06T03:38:54.406Z,84.29
2022-11-06T03:41:36.836Z,84.23
2022-11-06T03:44:05.826Z,84.36
2022-11-06T03:46:37.369Z,84.46
2022-11-06T03:49:12.756Z,84.43
2022-11-06T03:51:52.561Z,84.16
2022-11-06T03:54:27.171Z,84.35
2022-11-06T03:57:31.175Z,84.37
2022-11-06T04:00:01.997Z,84.28
2022-11-06T04:02:43.740Z,84.14
2022-11-06T04:05:18.010Z,84.36
2022-11-06T04:08:07.018Z,84.45
2022-11-06T04:10:54.596Z,84.62
2022-11-06T04:13:40.876Z,84.33
2022-11-06T04:16:09.044Z,84.28
2022-11-06T04:18:35.977Z,84.59
2022-11-06T04:21:26.058Z,84.53
2022-11-06T04:24:14.739Z,84.36
2022-11-06T04:27:19.204Z,84.33
2022-11-06T04:29:57.104Z,84.43
2022-11-06T04:33:00.087Z,84.31
2022-11-06T04:35:34.248Z,84.43
2022-11-06T04:38:27.843Z,84.56
2022-11-06T04:41:04.067Z,84.17
2022-11-06T04:43:54.816Z,84.47
2022-11-06T04:46:31.904Z,84.60
2022-11-06T04:48:59.897Z,84.54
2022-11-06T04:51:30.331Z,84.58
2022-11-06T04:53:57.815Z,84.46
2022-11-06T04:56:34.024Z,84.39
2022-11-06T04:59:03.792Z,84.29
2022-11-06T05:01:30.908Z,84.28
2022-11-06T05:03:58.145Z,84.43
2022-11-06T05:06:29.721Z,84.58
2022-11-06T05:08:58.333Z,84.41
2022-11-06T05:11:25.352Z,84.29
2022-11-06T05:13:52.474Z,84.59
2022-11-06T05:16:19.485Z,84.24
2022-11-06T05:18:46.636Z,84.45
2022-11-06T05:21:31.808Z,84.45
2022-11-06T05:23:58.948Z,84.85
2022-11-06T05:26:25.849Z,84.39
2022-11-06T05:28:52.797Z,84.36
2022-11-06T05:31:19.581Z,84.41
2022-11-06T05:33:46.461Z,84.65
2022-11-06T05:36:13.488Z,84.42
2022-11-06T05:38:40.368Z,84.56
2022-11-06T05:41:07.551Z,84.92
2022-11-06T05:43:34.500Z,84.42
2022-11-06T05:46:01.656Z,84.65
2022-11-06T05:48:29.108Z,84.22
2022-11-06T05:51:06.691Z,84.69
2022-11-06T05:53:36.122Z,84.63
2022-11-06T05:56:03.771Z,85.02
2022-11-06T05:58:31.439Z,84.83
2022-11-06T06:00:59.296Z,84.36
2022-11-06T06:03:26.837Z,84.65
2022-11-06T06:05:54.056Z,84.63
2022-11-06T06:08:21.315Z,84.57
2022-11-06T06:10:48.454Z,84.54
2022-11-06T06:13:15.974Z,84.54
2022-11-06T06:15:43.459Z,84.45
2022-11-06T06:18:11.466Z,84.58
2022-11-06T06:20:39.256Z,84.47
2022-11-06T06:23:09.444Z,84.57
2022-11-06T06:25:36.934Z,84.83
2022-11-06T06:28:04.025Z,84.48
2022-11-06T06:30:31.712Z,84.57
2022-11-06T06:33:04.475Z,84.56
2022-11-06T06:35:31.630Z,84.65
2022-11-06T06:37:58.571Z,84.78
2022-11-06T06:40:26.927Z,84.82
2022-11-06T06:42:57.938Z,84.68
2022-11-06T06:45:25.848Z,84.58
2022-11-06T06:47:52.792Z,84.80
2022-11-06T06:50:20.031Z,84.63
2022-11-06T06:52:47.665Z,84.67
2022-11-06T06:55:14.893Z,84.71
2022-11-06T06:57:42.057Z,84.66
2022-11-06T07:00:09.843Z,84.60
2022-11-06T07:02:36.766Z,84.70
2022-11-06T07:05:03.900Z,84.62
2022-11-06T07:07:30.896Z,84.69
2022-11-06T07:09:57.858Z,84.55
2022-11-06T07:12:24.860Z,84.83
2022-11-06T07:14:51.877Z,84.56
2022-11-06T07:17:18.965Z,84.58
2022-11-06T07:19:45.975Z,84.56
2022-11-06T07:22:13.164Z,84.58
2022-11-06T07:24:40.174Z,84.48
2022-11-06T07:27:07.135Z,84.66
2022-11-06T07:29:34.236Z,84.64
2022-11-06T07:32:01.176Z,84.49
2022-11-06T07:34:28.253Z,84.75
2022-11-06T07:36:55.159Z,84.76
2022-11-06T07:39:22.211Z,84.68
2022-11-06T07:41:49.119Z,84.81
2022-11-06T07:44:16.400Z,84.91
2022-11-06T07:46:43.453Z,84.92
2022-11-06T07:49:10.660Z,84.76
2022-11-06T07:51:37.552Z,84.94
2022-11-06T07:54:04.866Z,85.11
2022-11-06T07:56:32.037Z,85.10
2022-11-06T07:58:59.243Z,84.73
2022-11-06T08:01:26.715Z,85.00
2022-11-06T08:03:54.057Z,85.09
2022-11-06T08:06:21.275Z,85.08
2022-11-06T08:08:48.319Z,84.65
2022-11-06T08:11:15.631Z,85.24
2022-11-06T08:13:42.856Z,85.30
2022-11-06T08:16:12.145Z,85.10
2022-11-06T08:18:39.615Z,84.89
2022-11-06T08:21:07.776Z,85.00
2022-11-06T08:23:36.316Z,84.85
2022-11-06T08:26:05.527Z,84.89
2022-11-06T08:28:32.605Z,85.17
2022-11-06T08:31:04.230Z,85.33
2022-11-06T08:33:31.227Z,84.89
2022-11-06T08:36:02.461Z,84.77
2022-11-06T08:38:29.516Z,84.75
2022-11-06T08:40:56.422Z,85.36
2022-11-06T08:43:26.585Z,84.75
2022-11-06T08:45:53.850Z,85.20
2022-11-06T08:48:20.923Z,85.32
2022-11-06T08:50:48.726Z,85.12
2022-11-06T08:53:16.086Z,85.07
2022-11-06T08:55:43.412Z,84.62
2022-11-06T08:58:10.623Z,84.64
2022-11-06T09:00:37.792Z,84.63
2022-11-06T09:03:10.678Z,84.51
2022-11-06T09:05:41.634Z,84.51
2022-11-06T09:08:09.813Z,84.48
2022-11-06T09:10:41.543Z,84.49
2022-11-06T09:13:12.150Z,84.46
2022-11-06T09:15:39.841Z,84.26
2022-11-06T09:18:07.077Z,84.33
2022-11-06T09:20:34.773Z,84.37
2022-11-06T09:23:06.604Z,84.02
2022-11-06T09:25:33.728Z,83.94
2022-11-06T09:28:00.732Z,83.88
2022-11-06T09:30:30.012Z,83.40
2022-11-06T09:32:59.856Z,83.31
2022-11-06T09:35:27.995Z,82.85
2022-11-06T09:37:55.031Z,82.88
2022-11-06T09:40:30.953Z,82.81
2022-11-06T09:44:04.661Z,82.82
2022-11-06T09:46:27.742Z,82.29
2022-11-06T09:49:01.805Z,82.22
2022-11-06T09:52:02.376Z,81.67
2022-11-06T09:54:35.230Z,81.53
2022-11-06T09:57:06.976Z,81.53
2022-11-06T09:59:37.092Z,81.49
2022-11-06T10:02:28.050Z,81.38
2022-11-06T10:05:02.970Z,80.81
2022-11-06T10:07:32.818Z,80.61
2022-11-06T10:10:00.996Z,80.21
2022-11-06T10:12:33.555Z,80.26
2022-11-06T10:15:26.800Z,80.00
2022-11-06T10:18:17.049Z,80.06
2022-11-06T10:21:10.981Z,79.87
2022-11-06T10:23:58.051Z,80.01
2022-11-06T10:26:40.836Z,79.44
2022-11-06T10:29:29.327Z,79.32
2022-11-06T10:32:12.747Z,78.65
2022-11-06T10:35:00.482Z,78.65
2022-11-06T10:37:33.979Z,78.63
2022-11-06T10:40:05.313Z,78.17
2022-11-06T10:42:38.509Z,78.43
2022-11-06T10:45:18.680Z,78.05
2022-11-06T10:47:51.031Z,78.07
2022-11-06T10:50:18.509Z,77.48
2022-11-06T10:53:08.581Z,77.70
2022-11-06T10:55:50.487Z,78.07
2022-11-06T10:58:20.045Z,77.59
2022-11-06T11:00:47.215Z,76.66
2022-11-06T11:03:22.715Z,76.88
2022-11-06T11:05:49.761Z,76.81
2022-11-06T11:08:36.564Z,76.52
2022-11-06T11:11:16.241Z,76.51
2022-11-06T11:13:46.180Z,76.81
2022-11-06T11:16:21.765Z,76.07
2022-11-06T11:18:50.525Z,75.81
2022-11-06T11:21:20.470Z,75.90
2022-11-06T11:24:08.675Z,75.99
2022-11-06T11:26:47.653Z,75.35
2022-11-06T11:29:23.159Z,75.05
2022-11-06T11:31:52.570Z,74.96
2022-11-06T11:34:22.901Z,74.72
2022-11-06T11:36:56.029Z,74.80
2022-11-06T11:39:29.918Z,74.52
2022-11-06T11:42:22.756Z,74.57
2022-11-06T11:45:16.242Z,74.29
2022-11-06T11:47:46.832Z,74.75
2022-11-06T11:50:20.224Z,74.61
2022-11-06T11:52:49.623Z,73.78
2022-11-06T11:55:22.560Z,73.89
2022-11-06T11:57:51.384Z,73.55
2022-11-06T12:00:19.945Z,73.79
2022-11-06T12:03:03.432Z,73.38
2022-11-06T12:05:36.196Z,73.64
2022-11-06T12:08:03.884Z,73.54
2022-11-06T12:10:38.604Z,73.00
2022-11-06T12:13:07.800Z,73.46
2022-11-06T12:15:53.237Z,73.23
2022-11-06T12:18:25.688Z,73.15
2022-11-06T12:21:04.280Z,72.96
2022-11-06T12:23:49.798Z,72.61
2022-11-06T12:26:27.282Z,73.12
2022-11-06T12:29:02.015Z,73.05
2022-11-06T12:31:53.312Z,72.60
2022-11-06T12:34:32.092Z,72.71
2022-11-06T12:37:19.731Z,72.12
2022-11-06T12:39:54.238Z,72.56
2022-11-06T12:42:22.870Z,72.52
2022-11-06T12:44:49.839Z,72.25
2022-11-06T12:47:46.529Z,72.09
2022-11-06T12:50:33.835Z,72.21
2022-11-06T12:53:10.814Z,72.01
2022-11-06T12:56:23.228Z,72.16
2022-11-06T12:59:01.790Z,71.76
2022-11-06T13:01:48.622Z,71.94
2022-11-06T13:04:48.562Z,71.68
2022-11-06T13:07:22.270Z,71.42
2022-11-06T13:09:52.287Z,71.58
2022-11-06T13:12:25.058Z,71.07
2022-11-06T13:15:13.227Z,71.37
2022-11-06T13:17:55.783Z,71.27
2022-11-06T13:20:47.471Z,71.08
2022-11-06T13:23:26.041Z,71.21
2022-11-06T13:26:13.044Z,70.98
2022-11-06T13:28:47.618Z,70.96
2022-11-06T13:31:18.762Z,71.21
2022-11-06T13:33:54.602Z,70.97
2022-11-06T13:36:22.074Z,70.60
2022-11-06T13:39:12.849Z,70.58
2022-11-06T13:41:40.008Z,70.68
2022-11-06T13:44:20.117Z,70.89
2022-11-06T13:46:57.064Z,70.79
2022-11-06T13:50:01.470Z,70.71
2022-11-06T13:52:51.928Z,70.11
2022-11-06T13:55:52.852Z,70.30
2022-11-06T13:58:29.491Z,69.99
2022-11-06T14:01:15.163Z,70.39
2022-11-06T14:04:03.832Z,70.22
2022-11-06T14:06:32.478Z,70.20
2022-11-06T14:09:05.211Z,69.84
2022-11-06T14:11:38.502Z,69.56
2022-11-06T14:14:08.205Z,69.97
2022-11-06T14:16:40.165Z,70.15
2022-11-06T14:19:30.491Z,69.98
2022-11-06T14:22:25.293Z,69.45
2022-11-06T14:24:56.990Z,69.80
2022-11-06T14:27:28.839Z,69.70
2022-11-06T14:30:50.193Z,70.19
2022-11-06T14:33:52.954Z,69.81
2022-11-06T14:36:26.222Z,70.42
2022-11-06T14:38:54.504Z,69.90
2022-11-06T14:41:40.509Z,69.98
2022-11-06T14:44:27.276Z,69.93
2022-11-06T14:46:57.854Z,69.99
2022-11-06T14:49:37.215Z,69.84
2022-11-06T14:52:07.633Z,70.06
2022-11-06T14:54:37.655Z,70.62
2022-11-06T14:57:05.274Z,69.89
2022-11-06T14:59:40.976Z,70.05
2022-11-06T15:02:22.322Z,69.99
2022-11-06T15:04:53.754Z,70.30
2022-11-06T15:07:58.753Z,70.70
2022-11-06T15:10:43.802Z,70.91
2022-11-06T15:13:12.967Z,70.42
2022-11-06T15:15:42.379Z,70.79
2022-11-06T15:18:12.931Z,71.13
2022-11-06T15:20:41.313Z,70.67
2022-11-06T15:23:15.074Z,71.33
2022-11-06T15:26:03.017Z,71.22
2022-11-06T15:28:38.539Z,71.12
2022-11-06T15:31:12.772Z,71.48
2022-11-06T15:34:02.813Z,71.36
2022-11-06T15:36:34.529Z,71.98
2022-11-06T15:39:21.668Z,71.88
2022-11-06T15:41:49.525Z,71.75
2022-11-06T15:44:20.254Z,72.29
2022-11-06T15:46:58.538Z,72.21
2022-11-06T15:49:26.105Z,72.22
2022-11-06T15:51:57.149Z,72.44
2022-11-06T15:54:36.100Z,72.45
2022-11-06T15:57:07.772Z,72.32
2022-11-06T15:59:34.842Z,72.71
2022-11-06T16:02:06.182Z,72.77
2022-11-06T16:04:34.331Z,72.94
2022-11-06T16:07:07.190Z,72.86
2022-11-06T16:09:36.804Z,73.01
2022-11-06T16:12:05.877Z,73.07
2022-11-06T16:14:39.009Z,73.13
2022-11-06T16:17:31.250Z,73.67
2022-11-06T16:20:00.925Z,73.66
2022-11-06T16:22:31.395Z,73.58
2022-11-06T16:25:02.806Z,74.11
2022-11-06T16:27:37.433Z,73.97
2022-11-06T16:30:06.940Z,74.28
2022-11-06T16:32:46.527Z,74.20
2022-11-06T16:35:34.321Z,74.53
2022-11-06T16:38:41.175Z,74.46
2022-11-06T16:41:33.647Z,74.52
2022-11-06T16:44:30.756Z,74.52
2022-11-06T16:47:21.227Z,74.79
2022-11-06T16:49:55.157Z,74.73
2022-11-06T16:52:25.960Z,74.59
2022-11-06T16:55:30.912Z,74.69
2022-11-06T16:57:59.478Z,74.82
2022-11-06T17:00:29.394Z,75.28
2022-11-06T17:02:59.562Z,75.24
2022-11-06T17:05:34.369Z,75.10
2022-11-06T17:08:33.258Z,75.27
2022-11-06T17:11:20.843Z,75.36
2022-11-06T17:13:49.977Z,75.69
2022-11-06T17:16:22.398Z,75.50
2022-11-06T17:18:49.774Z,75.60
2022-11-06T17:21:25.094Z,75.82
2022-11-06T17:23:53.159Z,75.97
2022-11-06T17:26:25.694Z,75.86
2022-11-06T17:28:52.869Z,75.85
2022-11-06T17:31:20.687Z,76.09
2022-11-06T17:33:48.175Z,76.37
2022-11-06T17:36:20.849Z,76.46
2022-11-06T17:38:48.313Z,76.43
2022-11-06T17:41:31.216Z,76.35
2022-11-06T17:44:04.738Z,76.09
2022-11-06T17:46:34.928Z,76.59
2022-11-06T17:49:02.701Z,76.42
2022-11-06T17:51:49.189Z,76.79
2022-11-06T17:54:28.688Z,76.83
2022-11-06T17:56:57.032Z,76.59
2022-11-06T17:59:24.529Z,76.95
2022-11-06T18:01:52.138Z,76.89
2022-11-06T18:04:23.312Z,76.93
2022-11-06T18:06:52.437Z,77.19
2022-11-06T18:09:21.047Z,77.44
2022-11-06T18:11:52.668Z,77.15
2022-11-06T18:14:20.658Z,77.48
2022-11-06T18:16:48.342Z,77.56
2022-11-06T18:19:18.333Z,77.40
2022-11-06T18:21:45.663Z,77.50
2022-11-06T18:24:12.934Z,77.40
2022-11-06T18:26:40.325Z,77.79
2022-11-06T18:29:08.464Z,77.81
2022-11-06T18:31:36.043Z,77.75
2022-11-06T18:34:03.867Z,77.86
2022-11-06T18:36:32.545Z,77.79
2022-11-06T18:38:59.624Z,77.81
2022-11-06T18:41:27.065Z,77.88
2022-11-06T18:43:58.324Z,77.81
2022-11-06T18:46:30.185Z,78.08
2022-11-06T18:48:58.034Z,77.82
2022-11-06T18:51:36.051Z,77.96
2022-11-06T18:54:06.659Z,77.98
2022-11-06T18:56:36.257Z,78.41
2022-11-06T18:59:07.820Z,78.21
2022-11-06T19:01:35.555Z,78.50
2022-11-06T19:04:04.321Z,78.63
2022-11-06T19:06:31.730Z,78.52
2022-11-06T19:08:59.192Z,78.31
2022-11-06T19:11:26.514Z,78.68
2022-11-06T19:13:53.827Z,78.89
2022-11-06T19:16:21.126Z,78.76
2022-11-06T19:21:30.506Z,78.76
2022-11-06T19:24:04.424Z,78.46
2022-11-06T19:26:33.716Z,78.92
2022-11-06T19:29:01.373Z,79.05
2022-11-06T19:31:29.815Z,78.90
2022-11-06T19:33:58.193Z,78.80
2022-11-06T19:36:25.682Z,78.88
2022-11-06T19:38:53.405Z,78.91
2022-11-06T19:41:21.070Z,78.91
2022-11-06T19:43:48.432Z,79.35
2022-11-06T19:46:23.403Z,79.08
2022-11-06T19:48:52.011Z,79.33
2022-11-06T19:51:19.378Z,79.46
2022-11-06T19:53:46.757Z,79.50
2022-11-06T19:56:16.695Z,79.20
2022-11-06T19:58:44.091Z,79.62
2022-11-06T20:01:15.184Z,79.44
2022-11-06T20:03:42.614Z,79.63
2022-11-06T20:06:10.192Z,79.70
2022-11-06T20:08:39.027Z,79.33
2022-11-06T20:11:08.796Z,79.59
2022-11-06T20:13:39.287Z,79.17
2022-11-06T20:16:08.566Z,79.63
2022-11-06T20:18:35.978Z,79.67
2022-11-06T20:21:05.415Z,79.84
2022-11-06T20:23:32.895Z,79.53
2022-11-06T20:26:00.108Z,80.05
2022-11-06T20:28:27.073Z,79.93
2022-11-06T20:30:54.218Z,80.17
2022-11-06T20:33:21.433Z,79.51
2022-11-06T20:35:48.408Z,79.82
2022-11-06T20:38:15.964Z,80.39
2022-11-06T20:40:43.504Z,80.14
2022-11-06T20:43:10.918Z,80.08
2022-11-06T20:45:38.066Z,80.33
2022-11-06T20:48:06.314Z,80.15
2022-11-06T20:50:34.282Z,80.47
2022-11-06T20:53:01.536Z,80.60
2022-11-06T20:55:29.203Z,79.79
2022-11-06T20:57:56.279Z,80.53
2022-11-06T21:00:23.634Z,80.17
2022-11-06T21:02:54.288Z,80.54
2022-11-06T21:05:23.532Z,80.54
2022-11-06T21:07:50.604Z,80.01
2022-11-06T21:10:17.908Z,80.40
2022-11-06T21:12:45.043Z,79.98
2022-11-06T21:15:12.483Z,80.46
2022-11-06T21:17:43.184Z,80.53
2022-11-06T21:20:11.274Z,80.46
2022-11-06T21:22:38.315Z,80.35
2022-11-06T21:25:05.616Z,80.68
2022-11-06T21:27:32.871Z,80.17
2022-11-06T21:29:59.801Z,80.53
2022-11-06T21:32:27.182Z,80.49
2022-11-06T21:34:54.222Z,80.06
2022-11-06T21:37:32.954Z,80.66
2022-11-06T21:40:00.772Z,80.80
2022-11-06T21:42:27.905Z,80.80
2022-11-06T21:44:54.807Z,80.64
2022-11-06T21:47:21.915Z,80.70
2022-11-06T21:49:54.183Z,80.85
2022-11-06T21:52:40.623Z,80.03
2022-11-06T21:55:27.908Z,80.32
2022-11-06T21:57:55.121Z,80.76
2022-11-06T22:00:22.027Z,80.01
2022-11-06T22:02:51.278Z,80.32
2022-11-06T22:05:18.382Z,80.01
2022-11-06T22:07:45.549Z,80.39
2022-11-06T22:10:12.818Z,80.40
2022-11-06T22:12:39.859Z,80.30
2022-11-06T22:15:07.589Z,80.38
2022-11-06T22:17:34.674Z,80.03
2022-11-06T22:20:01.654Z,80.44
2022-11-06T22:22:28.679Z,80.78
2022-11-06T22:24:55.758Z,80.44
2022-11-06T22:27:22.660Z,80.45
2022-11-06T22:29:49.757Z,80.59
2022-11-06T22:32:16.857Z,80.29
2022-11-06T22:34:44.052Z,80.33
2022-11-06T22:37:11.254Z,79.95
2022-11-06T22:39:38.252Z,79.86
2022-11-06T22:42:05.480Z,80.06
2022-11-06T22:44:33.597Z,80.50
2022-11-06T22:47:01.310Z,79.80
2022-11-06T22:49:28.636Z,79.72
2022-11-06T22:51:55.659Z,80.51
2022-11-06T22:54:22.925Z,80.36
2022-11-06T22:56:50.128Z,80.22
2022-11-06T22:59:17.246Z,80.43
2022-11-06T23:01:44.600Z,80.08
2022-11-06T23:04:17.114Z,79.82
2022-11-06T23:06:44.908Z,79.66
2022-11-06T23:09:12.178Z,80.38
2022-11-06T23:11:39.245Z,79.99
2022-11-06T23:14:09.075Z,79.60
2022-11-06T23:16:55.410Z,79.75
2022-11-06T23:19:22.838Z,79.79
2022-11-06T23:21:49.985Z,79.97
2022-11-06T23:24:17.115Z,79.94
2022-11-06T23:26:44.754Z,79.40
2022-11-06T23:29:12.027Z,79.50
2022-11-06T23:31:39.037Z,80.06
2022-11-06T23:34:06.080Z,79.40
2022-11-06T23:36:33.244Z,79.74
2022-11-06T23:39:00.277Z,79.72
2022-11-06T23:41:46.269Z,79.35
2022-11-06T23:44:33.295Z,79.90
2022-11-06T23:47:00.720Z,79.88
2022-11-06T23:49:27.626Z,79.58
2022-11-06T23:51:54.683Z,79.46
2022-11-06T23:54:21.637Z,79.41
2022-11-06T23:56:48.738Z,79.42
2022-11-06T23:59:15.887Z,79.69
